createdAt,value
2019-03-15T14:42:27.601Z,99266.38
2019-03-15T14:44:56.055Z,99253.16
2019-03-15T14:47:24.461Z,99269.19
2019-03-15T14:49:52.900Z,99260.98
2019-03-15T14:52:21.350Z,99258.59
2019-03-15T14:54:49.861Z,99278.42
2019-03-15T14:57:18.311Z,99276.66
2019-03-15T14:59:47.003Z,99270.96
2019-03-15T15:02:15.419Z,99270.61
2019-03-15T15:04:44.235Z,99260.61
2019-03-15T15:07:12.662Z,99352.73
2019-03-15T15:09:41.115Z,99292.48
2019-03-15T15:12:09.626Z,99268.72
2019-03-15T15:14:38.063Z,99317.05
2019-03-15T15:17:06.703Z,99326.51
2019-03-15T15:19:35.401Z,99302.92
2019-03-15T15:22:04.302Z,99329.67
2019-03-15T15:24:32.743Z,99285.97
2019-03-15T15:27:01.373Z,99290.56
2019-03-15T15:29:29.844Z,99313.38
2019-03-15T15:31:58.272Z,99307.03
2019-03-15T15:34:26.820Z,99266.22
2019-03-15T15:36:55.268Z,99289.09
2019-03-15T15:39:23.725Z,99289.09
2019-03-15T15:41:52.729Z,99313.63
2019-03-15T15:44:21.305Z,99320.23
2019-03-15T15:46:49.742Z,99304.49
2019-03-15T15:49:18.310Z,99306.81
2019-03-15T15:51:46.739Z,99299.84
2019-03-15T15:54:15.186Z,99359.05
2019-03-15T15:56:43.635Z,99292.52
2019-03-15T15:59:12.076Z,99318.33
2019-03-15T16:01:40.495Z,99320.58
2019-03-15T16:04:08.953Z,99309.97
2019-03-15T16:06:37.420Z,99325.48
2019-03-15T16:09:07.087Z,99307.73
2019-03-15T16:11:35.558Z,99322.48
2019-03-15T16:14:04.071Z,99328.91
2019-03-15T16:16:32.496Z,99336.00
2019-03-15T16:19:01.167Z,99389.85
2019-03-15T16:21:33.080Z,99338.31
2019-03-15T16:24:02.777Z,99346.13
2019-03-15T16:26:31.560Z,99363.63
2019-03-15T16:29:00.204Z,99391.58
2019-03-15T16:31:28.679Z,99370.82
2019-03-15T16:33:57.554Z,99370.64
2019-03-15T16:36:26.025Z,99357.88
2019-03-15T16:38:54.495Z,99372.03
2019-03-15T16:41:22.955Z,99371.85
2019-03-15T16:43:51.404Z,99374.36
2019-03-15T16:46:19.821Z,99367.83
2019-03-15T16:48:48.465Z,99382.78
2019-03-15T16:51:19.766Z,99370.72
2019-03-15T16:53:47.053Z,99383.84
2019-03-15T16:56:15.592Z,99375.67
2019-03-15T16:58:45.874Z,99417.03
2019-03-15T17:01:15.251Z,99393.53
2019-03-15T17:03:44.077Z,99413.06
2019-03-15T17:06:12.516Z,99397.03
2019-03-15T17:08:41.164Z,99410.22
2019-03-15T17:11:09.681Z,99405.61
2019-03-15T17:13:38.293Z,99406.86
2019-03-15T17:16:06.836Z,99407.89
2019-03-15T17:18:35.520Z,99393.37
2019-03-15T17:21:04.122Z,99428.58
2019-03-15T17:23:32.580Z,99441.27
2019-03-15T17:26:01.037Z,99409.05
2019-03-15T17:28:29.468Z,99423.25
2019-03-15T17:31:09.159Z,99455.61
2019-03-15T17:33:28.264Z,99462.97
2019-03-15T17:35:56.680Z,99467.67
2019-03-15T17:38:25.363Z,99462.95
2019-03-15T17:40:53.860Z,99452.55
2019-03-15T17:43:22.276Z,99461.73
2019-03-15T17:45:50.709Z,99492.52
2019-03-15T17:48:19.168Z,99498.55
2019-03-15T17:50:47.611Z,99483.63
2019-03-15T17:53:16.023Z,99475.65
2019-03-15T17:55:44.722Z,99492.31
2019-03-15T17:58:13.157Z,99502.33
2019-03-15T18:00:48.525Z,99496.09
2019-03-15T18:03:21.168Z,99497.83
2019-03-15T18:05:47.635Z,99508.86
2019-03-15T18:08:16.055Z,99530.56
2019-03-15T18:10:44.811Z,99550.06
2019-03-15T18:13:13.255Z,99529.73
2019-03-15T18:15:41.729Z,99533.28
2019-03-15T18:18:10.195Z,99560.56
2019-03-15T18:20:38.801Z,99525.92
2019-03-15T18:23:07.228Z,99536.95
2019-03-15T18:25:35.915Z,99545.84
2019-03-15T18:28:04.359Z,99550.86
2019-03-15T18:30:35.087Z,99544.70
2019-03-15T18:33:05.252Z,99565.16
2019-03-15T18:35:35.681Z,99569.45
2019-03-15T18:38:04.746Z,99561.27
2019-03-15T18:40:34.194Z,99566.80
2019-03-15T18:43:02.719Z,99570.25
2019-03-15T18:45:31.227Z,99581.91
2019-03-15T18:47:59.901Z,99584.56
2019-03-15T18:50:28.796Z,99593.05
2019-03-15T18:52:57.223Z,99596.52
2019-03-15T18:55:25.993Z,99605.50
2019-03-15T18:57:54.473Z,99595.19
2019-03-15T19:00:24.595Z,99601.52
2019-03-15T19:02:53.280Z,99610.81
2019-03-15T19:05:22.035Z,99637.08
2019-03-15T19:07:50.642Z,99603.86
2019-03-15T19:10:19.543Z,99632.28
2019-03-15T19:12:48.136Z,99624.77
2019-03-15T19:15:18.780Z,99620.48
2019-03-15T19:17:47.262Z,99635.80
2019-03-15T19:20:16.634Z,99642.86
2019-03-15T19:22:45.167Z,99641.53
2019-03-15T19:25:14.673Z,99633.13
2019-03-15T19:27:43.121Z,99648.25
2019-03-15T19:30:15.897Z,99647.42
2019-03-15T19:32:45.180Z,99646.30
2019-03-15T19:35:13.653Z,99658.26
2019-03-15T19:37:42.325Z,99715.05
2019-03-15T19:40:18.885Z,99673.88
2019-03-15T19:42:47.406Z,99683.49
2019-03-15T19:45:16.831Z,99693.80
2019-03-15T19:47:45.289Z,99689.82
2019-03-15T19:50:16.202Z,99685.52
2019-03-15T19:52:44.629Z,99683.88
2019-03-15T19:55:14.715Z,99686.41
2019-03-15T19:57:43.169Z,99690.59
2019-03-15T20:00:18.993Z,99684.34
2019-03-15T20:02:47.626Z,99694.34
2019-03-15T20:05:16.231Z,99692.39
2019-03-15T20:07:44.914Z,99700.88
2019-03-15T20:10:16.767Z,99711.68
2019-03-15T20:12:45.035Z,99709.86
2019-03-15T20:15:17.305Z,99713.84
2019-03-15T20:17:46.170Z,99723.00
2019-03-15T20:20:15.990Z,99726.98
2019-03-15T20:22:49.336Z,99725.34
2019-03-15T20:25:18.735Z,99743.94
2019-03-15T20:27:47.395Z,99755.95
2019-03-15T20:30:21.947Z,99748.72
2019-03-15T20:32:50.398Z,99752.88
2019-03-15T20:35:18.876Z,99762.06
2019-03-15T20:37:47.339Z,99760.91
2019-03-15T20:40:15.861Z,99767.61
2019-03-15T20:42:44.332Z,99757.37
2019-03-15T20:45:15.529Z,99757.89
2019-03-15T20:47:45.046Z,99767.68
2019-03-15T20:50:14.205Z,99772.19
2019-03-15T20:52:42.681Z,99774.84
2019-03-15T20:55:11.117Z,99784.83
2019-03-15T20:57:40.274Z,99772.87
2019-03-15T21:00:13.846Z,99784.72
2019-03-15T21:02:42.768Z,99792.53
2019-03-15T21:05:11.401Z,99788.62
2019-03-15T21:07:43.161Z,99809.22
2019-03-15T21:10:16.083Z,99796.73
2019-03-15T21:12:44.613Z,99812.66
2019-03-15T21:15:14.953Z,99813.98
2019-03-15T21:17:43.762Z,99805.02
2019-03-15T21:20:17.080Z,99807.98
2019-03-15T21:22:45.578Z,99814.91
2019-03-15T21:25:14.016Z,99834.12
2019-03-15T21:27:52.895Z,99845.74
2019-03-15T21:30:18.791Z,99835.85
2019-03-15T21:32:47.268Z,99838.19
2019-03-15T21:35:15.672Z,99846.15
2019-03-15T21:37:44.973Z,99858.09
2019-03-15T21:40:15.633Z,99855.13
2019-03-15T21:42:44.060Z,99847.16
2019-03-15T21:45:13.150Z,99867.55
2019-03-15T21:47:41.653Z,99848.17
2019-03-15T21:50:17.274Z,99879.17
2019-03-15T21:52:45.908Z,99883.48
2019-03-15T21:55:14.596Z,99888.61
2019-03-15T21:57:43.057Z,99897.18
2019-03-15T22:00:18.377Z,99902.48
2019-03-15T22:02:46.812Z,99897.81
2019-03-15T22:05:15.326Z,99895.16
2019-03-15T22:07:44.257Z,99893.34
2019-03-15T22:10:16.262Z,99892.50
2019-03-15T22:12:44.762Z,99896.48
2019-03-15T22:15:14.937Z,99891.18
2019-03-15T22:17:43.635Z,99901.80
2019-03-15T22:20:16.219Z,99911.92
2019-03-15T22:22:44.638Z,99909.06
2019-03-15T22:25:13.628Z,99903.77
2019-03-15T22:27:42.047Z,99905.41
2019-03-15T22:30:14.963Z,99922.17
2019-03-15T22:32:43.747Z,99925.31
2019-03-15T22:35:12.869Z,99939.22
2019-03-15T22:37:41.363Z,99939.91
2019-03-15T22:40:14.056Z,99935.44
2019-03-15T22:42:42.792Z,99939.11
2019-03-15T22:45:12.521Z,99967.66
2019-03-15T22:47:41.015Z,99963.36
2019-03-15T22:50:10.886Z,99954.96
2019-03-15T22:52:39.428Z,99953.16
2019-03-15T22:55:09.765Z,99941.42
2019-03-15T22:57:38.208Z,99939.78
2019-03-15T23:00:13.410Z,99944.77
2019-03-15T23:02:41.922Z,99951.41
2019-03-15T23:05:10.790Z,99943.44
2019-03-15T23:07:39.236Z,99963.66
2019-03-15T23:10:09.983Z,99958.36
2019-03-15T23:12:38.680Z,99971.63
2019-03-15T23:15:09.108Z,99979.27
2019-03-15T23:17:37.644Z,99978.26
2019-03-15T23:20:08.515Z,99983.56
2019-03-15T23:22:37.234Z,99998.53
2019-03-15T23:25:06.744Z,100016.78
2019-03-15T23:27:35.188Z,99998.89
2019-03-15T23:30:05.499Z,99993.95
2019-03-15T23:32:33.964Z,100023.51
2019-03-15T23:35:02.397Z,100011.61
2019-03-15T23:37:31.359Z,100028.21
2019-03-15T23:39:59.790Z,100029.54
2019-03-15T23:42:28.263Z,100024.23
2019-03-15T23:44:56.760Z,100020.94
2019-03-15T23:47:25.180Z,100022.95
2019-03-15T23:49:53.706Z,100022.30
2019-03-15T23:52:22.173Z,100034.64
2019-03-15T23:54:50.628Z,100036.13
2019-03-15T23:57:19.065Z,100036.00
2019-03-15T23:59:47.566Z,100021.58
